リヤド の空港の天気 - METARとTAF

キング・ハーリド国際空港(リヤド) ( OERK / RUH ) - サウジアラビア リヤド
飛行場実況気象(Metar)
観測時間10/20 19:00 AST (10/20 16:00 UTC)
風向・風速静穏 0m/s
視程10km以上
天気現象
なし
気温25℃
湿度69%
気圧1016hPa
METAROERK 201600Z 00000KT CAVOK 25/19 Q1016 NOSIG
過去の天気等 Google飛行場航空写真 Wunderground天気予報

過去48時間のMETAR

飛行場予報(TAF)
発表時間: 10/20 14:00 AST (10/20 11:00 UTC)
予報対象時間: 20日15時 AST ~ 21日21時 AST
風向・風速南東 3m/s 瞬間風速 8m/s
視程7000m
少しの雲 雲底高度 1220m
全天の4割程度の雲 雲底高度 3050m
20日15時 AST ~ 20日23時 AST に 確率 30% で一時的に
視程3500m
天気現象高い風塵 雷雨
少しの積乱雲 雲底高度 1070m
全天の4割程度の雲 雲底高度 1220m
TAF OERK 201100Z 2012/2118 14006G16KT 7000 FEW040 SCT100
PROB30 TEMPO 2012/2020 3500 BLDU TSRA FEW035CB SCT040